Time;durP1;ratioP1;P1;durP2;ratioP2;P2;SDS_P1;SDS_P2;PMS_P1;PMS_P2;Temp;Humidity;BMP_temperature;BMP_pressure;BME280_temperature;BME280_humidity;BME280_pressure;Samples;Min_cycle;Max_cycle;Signal;HPM_P1;HPM_P2
2024/04/14 00:01:52;;;;;;;22.33;17.13;;;19.40;70.30;;;;;;5366314;26;110581;-51
2024/04/14 00:04:18;;;;;;;20.88;15.82;;;19.40;70.80;;;;;;5358771;26;111164;-51
2024/04/14 00:06:44;;;;;;;19.60;15.73;;;19.20;71.50;;;;;;5336957;26;110682;-51
2024/04/14 00:09:10;;;;;;;21.73;15.20;;;19.10;71.60;;;;;;5366365;26;111408;-51
2024/04/14 00:11:36;;;;;;;24.35;15.63;;;19.10;71.60;;;;;;5366238;26;110708;-51
2024/04/14 00:14:01;;;;;;;20.38;15.00;;;19.00;72.00;;;;;;5364783;26;112383;-51
2024/04/14 00:16:27;;;;;;;23.75;14.93;;;19.20;71.20;;;;;;5350546;26;111141;-51
2024/04/14 00:18:53;;;;;;;19.77;14.98;;;19.30;71.00;;;;;;5362196;26;110404;-51
2024/04/14 00:21:21;;;;;;;19.23;14.02;;;19.20;71.40;;;;;;5366162;26;110580;-50
2024/04/14 00:23:48;;;;;;;18.52;14.10;;;19.20;71.50;;;;;;5364809;26;112349;-51
2024/04/14 00:26:13;;;;;;;22.88;14.25;;;19.20;71.20;;;;;;5352632;26;110623;-51
2024/04/14 00:28:40;;;;;;;18.80;13.63;;;19.20;71.30;;;;;;5356260;26;110692;-51
2024/04/14 00:31:06;;;;;;;15.90;13.32;;;19.10;71.70;;;;;;5366399;26;110520;-51
2024/04/14 00:33:35;;;;;;;18.80;13.32;;;19.00;72.00;;;;;;5365031;26;111626;-51
2024/04/14 00:36:02;;;;;;;17.13;13.45;;;18.80;72.40;;;;;;5339368;26;111945;-51
2024/04/14 00:38:28;;;;;;;16.77;13.50;;;19.10;72.00;;;;;;5345247;26;110554;-50
2024/04/14 00:40:53;;;;;;;19.45;13.45;;;18.90;72.40;;;;;;5366079;26;110831;-51
2024/04/14 00:43:20;;;;;;;15.77;14.10;;;19.00;72.10;;;;;;5364639;26;113355;-50
2024/04/14 00:45:46;;;;;;;21.02;14.63;;;18.80;72.80;;;;;;5364819;26;111536;-50
2024/04/14 00:48:13;;;;;;;17.90;15.20;;;18.90;72.40;;;;;;5350491;26;110729;-51
2024/04/14 00:50:43;;;;;;;15.40;13.75;;;18.80;72.90;;;;;;5346934;26;110471;-50
2024/04/14 00:53:09;;;;;;;16.58;14.30;;;18.90;72.80;;;;;;5364737;26;111098;-51
2024/04/14 00:55:36;;;;;;;15.63;13.93;;;19.00;72.50;;;;;;5358098;26;110634;-51
2024/04/14 00:58:02;;;;;;;16.70;13.80;;;18.90;72.70;;;;;;5360022;26;110625;-51
2024/04/14 01:00:29;;;;;;;17.08;14.32;;;18.80;73.10;;;;;;5353835;26;110511;-50
2024/04/14 01:02:55;;;;;;;16.35;14.65;;;18.80;73.50;;;;;;5364893;26;111122;-51
2024/04/14 01:05:24;;;;;;;20.60;14.25;;;18.80;73.30;;;;;;5364345;26;110945;-50
2024/04/14 01:07:52;;;;;;;18.15;14.77;;;18.80;73.20;;;;;;5366146;26;110895;-51
2024/04/14 01:10:18;;;;;;;20.23;15.73;;;18.70;73.70;;;;;;5347132;26;112440;-51
2024/04/14 01:12:44;;;;;;;19.98;15.82;;;18.60;74.20;;;;;;5364559;26;111649;-51
2024/04/14 01:15:10;;;;;;;19.60;14.68;;;18.60;74.00;;;;;;5363362;26;110620;-50
2024/04/14 01:17:36;;;;;;;18.42;16.00;;;18.50;74.40;;;;;;5365548;26;110836;-50
2024/04/14 01:20:01;;;;;;;17.55;15.85;;;18.40;74.70;;;;;;5352228;26;110498;-51
2024/04/14 01:22:27;;;;;;;19.63;15.98;;;18.50;74.60;;;;;;5341297;26;112987;-51
2024/04/14 01:25:06;;;;;;;18.63;16.27;;;18.50;74.50;;;;;;5364380;26;110548;-51
2024/04/14 01:27:35;;;;;;;18.73;16.80;;;18.50;74.50;;;;;;5365431;26;110449;-50
2024/04/14 01:30:05;;;;;;;21.08;16.60;;;18.50;74.50;;;;;;5363178;26;110656;-51
2024/04/14 01:32:35;;;;;;;20.70;16.65;;;18.60;74.30;;;;;;5344671;26;113752;-50
2024/04/14 01:35:01;;;;;;;20.27;16.65;;;18.50;74.40;;;;;;5352344;26;110634;-51
2024/04/14 01:37:27;;;;;;;19.25;16.92;;;18.40;74.40;;;;;;5352477;26;110431;-51
2024/04/14 01:39:52;;;;;;;18.35;16.48;;;18.50;74.30;;;;;;5365148;26;110792;-51
2024/04/14 01:42:18;;;;;;;19.30;17.27;;;18.40;74.30;;;;;;5356796;26;112478;-50
2024/04/14 01:44:44;;;;;;;18.17;16.00;;;18.40;74.10;;;;;;5363848;26;110625;-51
2024/04/14 01:47:09;;;;;;;18.92;16.90;;;18.60;73.80;;;;;;5365278;26;110658;-51
2024/04/14 01:49:35;;;;;;;19.70;16.55;;;18.60;73.80;;;;;;5365104;26;110576;-51
2024/04/14 01:52:02;;;;;;;18.98;16.48;;;18.60;73.70;;;;;;5355136;26;110995;-51
2024/04/14 01:54:27;;;;;;;18.00;16.08;;;18.60;73.40;;;;;;5339289;26;111529;-51
2024/04/14 01:56:53;;;;;;;27.52;19.45;;;18.70;73.20;;;;;;5329486;26;110505;-50
2024/04/14 01:59:19;;;;;;;23.73;21.33;;;18.60;73.40;;;;;;5330222;26;110907;-51
2024/04/14 02:01:45;;;;;;;28.58;19.30;;;18.50;73.50;;;;;;5328640;26;113159;-51
2024/04/14 02:04:11;;;;;;;21.33;17.85;;;18.60;73.20;;;;;;5330379;26;111648;-50
2024/04/14 02:06:36;;;;;;;23.42;19.02;;;18.40;73.50;;;;;;5329544;26;112585;-51
2024/04/14 02:09:02;;;;;;;21.48;18.33;;;18.30;73.90;;;;;;5329412;26;110619;-50
2024/04/14 02:11:29;;;;;;;24.20;17.40;;;18.40;73.60;;;;;;5329515;26;112644;-51
2024/04/14 02:13:55;;;;;;;19.40;17.50;;;18.40;73.30;;;;;;5333866;26;111118;-51
2024/04/14 02:16:21;;;;;;;21.50;18.27;;;18.40;73.50;;;;;;5333656;26;111031;-52
2024/04/14 02:18:47;;;;;;;22.15;18.42;;;18.30;73.90;;;;;;5308297;26;110826;-51
2024/04/14 02:21:12;;;;;;;23.67;18.77;;;18.30;74.00;;;;;;5314666;26;111041;-51
2024/04/14 02:23:38;;;;;;;21.27;18.92;;;18.20;74.20;;;;;;5307819;26;111539;-51
2024/04/14 02:26:04;;;;;;;22.48;17.58;;;18.30;73.70;;;;;;5337159;26;110661;-51
2024/04/14 02:28:30;;;;;;;20.70;17.73;;;18.30;73.60;;;;;;5331891;26;111405;-50
2024/04/14 02:30:57;;;;;;;20.70;17.65;;;18.30;73.50;;;;;;5326663;26;111167;-51
2024/04/14 02:33:22;;;;;;;20.42;18.33;;;18.30;73.70;;;;;;5343831;26;110795;-51
2024/04/14 02:35:56;;;;;;;19.55;17.13;;;18.30;73.60;;;;;;5313470;26;111335;-51
2024/04/14 02:38:22;;;;;;;19.92;17.45;;;18.00;74.10;;;;;;5328617;26;110496;-51
2024/04/14 02:41:04;;;;;;;19.52;17.67;;;18.00;74.40;;;;;;5318774;26;112354;-51
2024/04/14 02:43:34;;;;;;;21.80;18.23;;;18.00;74.40;;;;;;5316571;26;111749;-51
2024/04/14 02:46:00;;;;;;;26.15;18.88;;;17.90;74.60;;;;;;5331503;26;110401;-51
2024/04/14 02:48:26;;;;;;;20.55;18.45;;;17.80;75.00;;;;;;5350384;26;111112;-51
2024/04/14 02:50:52;;;;;;;20.25;18.17;;;17.90;74.70;;;;;;5331922;26;113438;-50
2024/04/14 02:53:18;;;;;;;20.60;18.42;;;17.90;74.60;;;;;;5326195;26;110768;-50
2024/04/14 02:55:43;;;;;;;22.27;19.23;;;17.80;75.10;;;;;;5325158;26;110839;-51
2024/04/14 02:58:10;;;;;;;21.05;19.05;;;17.90;75.00;;;;;;5324100;26;111032;-51
2024/04/14 03:00:36;;;;;;;21.00;18.77;;;17.80;75.20;;;;;;5341943;26;112740;-51
2024/04/14 03:03:01;;;;;;;22.23;20.10;;;17.70;75.60;;;;;;5330262;26;110483;-51
2024/04/14 03:05:27;;;;;;;21.65;19.15;;;17.60;75.60;;;;;;5331310;26;110593;-51
2024/04/14 03:07:53;;;;;;;21.83;19.48;;;17.50;75.90;;;;;;5331574;26;110777;-51
2024/04/14 03:10:19;;;;;;;23.23;20.17;;;17.60;75.80;;;;;;5330702;26;111078;-50
2024/04/14 03:12:45;;;;;;;25.77;19.88;;;17.50;76.10;;;;;;5330255;26;111932;-50
2024/04/14 03:15:12;;;;;;;22.73;20.20;;;17.50;76.00;;;;;;5331396;26;110386;-50
2024/04/14 03:17:38;;;;;;;23.08;20.65;;;17.60;75.90;;;;;;5329825;26;111060;-51
2024/04/14 03:20:05;;;;;;;26.90;20.58;;;17.50;75.90;;;;;;5353672;26;111080;-51
2024/04/14 03:22:32;;;;;;;22.10;19.77;;;17.50;76.20;;;;;;5344576;26;110586;-51
2024/04/14 03:24:57;;;;;;;22.50;20.30;;;17.50;76.20;;;;;;5331120;26;110501;-51
2024/04/14 03:27:23;;;;;;;22.88;20.45;;;17.60;75.60;;;;;;5331480;26;110597;-50
2024/04/14 03:29:49;;;;;;;22.27;20.17;;;17.50;76.00;;;;;;5338321;26;112465;-51
2024/04/14 03:32:15;;;;;;;23.00;20.63;;;17.50;75.80;;;;;;5330422;26;111529;-50
2024/04/14 03:34:42;;;;;;;24.02;21.40;;;17.40;75.70;;;;;;5331607;26;110960;-50
2024/04/14 03:37:09;;;;;;;23.27;21.17;;;17.30;76.20;;;;;;5330609;26;110758;-51
2024/04/14 03:39:35;;;;;;;22.60;19.90;;;17.30;76.50;;;;;;5330135;26;111081;-51
2024/04/14 03:42:01;;;;;;;22.30;20.10;;;17.30;76.20;;;;;;5351052;26;112743;-51
2024/04/14 03:44:28;;;;;;;23.75;21.48;;;17.20;76.60;;;;;;5331197;26;110936;-50
2024/04/14 03:46:54;;;;;;;23.30;21.20;;;17.20;76.60;;;;;;5330784;26;110705;-50
2024/04/14 03:49:19;;;;;;;26.25;21.92;;;17.20;76.60;;;;;;5330197;26;111170;-50
2024/04/14 03:51:45;;;;;;;21.92;19.67;;;17.20;76.60;;;;;;5346741;26;110544;-50
2024/04/14 03:54:11;;;;;;;24.17;21.73;;;17.30;76.60;;;;;;5353307;26;112518;-51
2024/04/14 03:56:36;;;;;;;25.40;21.50;;;17.10;77.10;;;;;;5331375;26;110671;-50
2024/04/14 03:59:03;;;;;;;24.92;22.15;;;17.00;77.50;;;;;;5329845;26;111601;-50
2024/04/14 04:01:29;;;;;;;24.65;21.70;;;17.00;77.60;;;;;;5332976;26;111075;-50
2024/04/14 04:03:55;;;;;;;27.35;21.63;;;17.00;77.30;;;;;;5357639;26;110912;-50
2024/04/14 04:06:20;;;;;;;22.65;20.45;;;17.00;76.90;;;;;;5333964;26;110836;-51
2024/04/14 04:08:46;;;;;;;23.50;20.17;;;16.90;76.90;;;;;;5329760;26;112543;-50
2024/04/14 04:11:12;;;;;;;24.58;21.98;;;16.70;77.60;;;;;;5351209;26;111091;-51
2024/04/14 04:13:37;;;;;;;23.48;21.33;;;16.70;77.60;;;;;;5345400;26;110621;-51
2024/04/14 04:16:05;;;;;;;24.50;20.80;;;16.80;77.60;;;;;;5341199;26;110434;-50
2024/04/14 04:18:31;;;;;;;24.15;21.80;;;16.80;77.20;;;;;;5329564;26;114286;-50
2024/04/14 04:20:59;;;;;;;25.83;23.42;;;16.70;77.50;;;;;;5329770;26;110553;-51
2024/04/14 04:23:29;;;;;;;26.77;22.77;;;16.80;77.30;;;;;;5331109;26;111532;-51
2024/04/14 04:25:59;;;;;;;24.58;22.08;;;16.80;77.10;;;;;;5330753;26;110710;-50
2024/04/14 04:28:25;;;;;;;24.20;21.60;;;16.70;77.20;;;;;;5329489;26;113205;-50
2024/04/14 04:30:53;;;;;;;22.38;20.35;;;16.70;77.40;;;;;;5329878;26;110882;-50
2024/04/14 04:33:19;;;;;;;24.75;21.98;;;16.80;77.70;;;;;;5330653;26;110968;-51
2024/04/14 04:35:58;;;;;;;24.42;21.85;;;16.90;77.50;;;;;;5328866;26;110706;-51
2024/04/14 04:38:24;;;;;;;25.77;22.88;;;16.90;77.50;;;;;;5329358;26;112757;-50
2024/04/14 04:40:51;;;;;;;27.08;24.45;;;16.80;77.60;;;;;;5329654;26;110847;-50
2024/04/14 04:43:17;;;;;;;26.90;23.98;;;16.90;77.70;;;;;;5330439;26;110828;-51
2024/04/14 04:45:43;;;;;;;26.25;23.67;;;16.90;77.40;;;;;;5330432;26;111116;-50
2024/04/14 04:48:08;;;;;;;26.52;23.75;;;17.00;77.20;;;;;;5328536;26;111040;-51
2024/04/14 04:50:35;;;;;;;26.80;23.75;;;17.20;76.70;;;;;;5328827;26;111629;-50
2024/04/14 04:53:02;;;;;;;27.48;24.85;;;17.40;76.20;;;;;;5335776;26;110549;-50
2024/04/14 04:55:27;;;;;;;27.10;24.45;;;17.20;76.60;;;;;;5330235;26;110707;-51
2024/04/14 04:57:53;;;;;;;29.52;26.55;;;17.30;76.60;;;;;;5329460;26;111150;-50
2024/04/14 05:00:19;;;;;;;29.00;26.27;;;17.30;76.50;;;;;;5330398;26;110751;-51
2024/04/14 05:02:44;;;;;;;28.55;25.85;;;17.20;77.00;;;;;;5330171;26;110830;-50
2024/04/14 05:05:10;;;;;;;29.25;26.40;;;17.20;77.20;;;;;;5330028;26;110657;-50
2024/04/14 05:07:36;;;;;;;31.40;28.08;;;17.20;77.20;;;;;;5329345;26;111175;-50
2024/04/14 05:10:02;;;;;;;29.77;26.98;;;17.30;77.10;;;;;;5329236;26;110779;-50
2024/04/14 05:12:27;;;;;;;29.85;26.90;;;17.20;77.10;;;;;;5330140;26;110715;-50
2024/04/14 05:14:53;;;;;;;31.45;28.50;;;17.20;77.20;;;;;;5329883;26;110607;-50
2024/04/14 05:17:18;;;;;;;33.03;29.10;;;17.20;77.40;;;;;;5341663;26;112327;-50
2024/04/14 05:19:44;;;;;;;33.03;29.63;;;17.20;77.60;;;;;;5332492;26;110719;-50
2024/04/14 05:22:10;;;;;;;35.08;30.88;;;17.40;77.40;;;;;;5331426;26;110749;-50
2024/04/14 05:24:35;;;;;;;34.05;30.65;;;17.40;77.10;;;;;;5329877;26;110867;-50
2024/04/14 05:27:03;;;;;;;35.85;31.92;;;17.40;77.10;;;;;;5328620;26;112462;-50
2024/04/14 05:29:30;;;;;;;32.45;29.45;;;17.60;76.70;;;;;;5329044;26;112385;-49
2024/04/14 05:31:55;;;;;;;32.25;29.25;;;17.70;76.40;;;;;;5329694;26;110605;-49
2024/04/14 05:34:21;;;;;;;33.75;30.65;;;17.90;75.70;;;;;;5329666;26;110639;-49
2024/04/14 05:36:47;;;;;;;34.40;31.20;;;17.90;75.70;;;;;;5328696;26;111608;-49
2024/04/14 05:39:13;;;;;;;33.95;30.88;;;18.10;75.40;;;;;;5328591;26;111752;-49
2024/04/14 05:41:38;;;;;;;35.42;32.00;;;18.00;75.60;;;;;;5327840;26;110909;-49
2024/04/14 05:44:04;;;;;;;33.75;30.55;;;18.00;75.60;;;;;;5327799;26;110558;-49
2024/04/14 05:46:30;;;;;;;32.58;29.27;;;18.20;74.80;;;;;;5315785;26;111127;-49
2024/04/14 05:48:55;;;;;;;32.45;28.95;;;18.20;74.70;;;;;;5329550;26;111636;-49
2024/04/14 05:51:21;;;;;;;37.08;33.35;;;18.30;74.60;;;;;;5329358;26;110485;-49
2024/04/14 05:53:48;;;;;;;33.25;29.83;;;18.50;73.90;;;;;;5329436;26;112348;-49
2024/04/14 05:56:14;;;;;;;31.08;28.10;;;18.60;73.50;;;;;;5328216;26;112486;-50
2024/04/14 05:58:40;;;;;;;32.08;28.83;;;18.80;72.90;;;;;;5328416;26;110536;-50
2024/04/14 06:01:09;;;;;;;32.40;29.25;;;18.80;73.90;;;;;;5329471;26;110753;-49
2024/04/14 06:03:35;;;;;;;31.90;28.52;;;18.70;74.30;;;;;;5329382;26;110543;-50
2024/04/14 06:06:01;;;;;;;30.05;27.30;;;18.70;73.50;;;;;;5330180;26;111619;-50
2024/04/14 06:08:27;;;;;;;29.38;26.67;;;18.90;73.10;;;;;;5329815;26;111498;-50
2024/04/14 06:10:52;;;;;;;30.23;27.35;;;19.10;72.00;;;;;;5340815;26;110675;-49
2024/04/14 06:13:18;;;;;;;30.20;27.17;;;19.10;71.60;;;;;;5328864;26;110995;-50
2024/04/14 06:15:45;;;;;;;29.90;27.17;;;19.10;71.90;;;;;;5329978;26;110979;-50
2024/04/14 06:18:11;;;;;;;28.70;25.98;;;19.30;71.60;;;;;;5327812;26;110774;-50
2024/04/14 06:20:39;;;;;;;28.15;25.38;;;19.40;71.10;;;;;;5329036;26;110802;-50
2024/04/14 06:23:05;;;;;;;28.15;25.25;;;19.50;70.30;;;;;;5328941;26;110711;-50
2024/04/14 06:25:31;;;;;;;31.25;25.58;;;19.70;70.40;;;;;;5327736;26;111998;-49
2024/04/14 06:27:57;;;;;;;27.60;24.85;;;19.60;70.00;;;;;;5327814;26;110646;-50
2024/04/14 06:30:22;;;;;;;28.00;25.27;;;19.80;69.90;;;;;;5329010;26;110760;-50
2024/04/14 06:32:49;;;;;;;27.45;24.77;;;19.90;69.10;;;;;;5328710;26;110637;-50
2024/04/14 06:35:15;;;;;;;26.63;24.00;;;19.80;69.30;;;;;;5327382;26;111404;-50
2024/04/14 06:37:41;;;;;;;26.67;23.98;;;20.10;68.90;;;;;;5329813;26;111620;-50
2024/04/14 06:40:07;;;;;;;25.67;23.00;;;20.10;68.60;;;;;;5335270;26;110976;-50
2024/04/14 06:42:33;;;;;;;26.45;23.85;;;20.30;68.30;;;;;;5328280;26;110778;-50
2024/04/14 06:44:59;;;;;;;27.83;24.10;;;20.30;68.10;;;;;;5327086;26;111077;-50
2024/04/14 06:47:24;;;;;;;26.33;23.63;;;20.40;67.50;;;;;;5327310;26;111592;-50
2024/04/14 06:49:50;;;;;;;24.65;22.05;;;20.40;67.20;;;;;;5328281;26;110639;-50
2024/04/14 06:52:15;;;;;;;25.27;22.88;;;20.40;67.70;;;;;;5328141;26;110556;-50
2024/04/14 06:54:41;;;;;;;24.40;21.85;;;20.70;66.80;;;;;;5326727;26;112401;-50
2024/04/14 06:57:07;;;;;;;23.92;21.63;;;20.70;66.30;;;;;;5326674;26;111789;-50
2024/04/14 06:59:34;;;;;;;23.83;21.27;;;20.90;65.80;;;;;;5328523;26;110561;-50
2024/04/14 07:02:00;;;;;;;23.15;20.80;;;20.90;65.50;;;;;;5328022;26;110633;-50
2024/04/14 07:04:25;;;;;;;22.35;20.00;;;20.90;65.60;;;;;;5326773;26;111325;-50
2024/04/14 07:06:51;;;;;;;20.65;18.40;;;21.10;65.80;;;;;;5329068;26;110506;-50
2024/04/14 07:09:17;;;;;;;21.90;19.67;;;21.30;65.00;;;;;;5328089;26;110829;-50
2024/04/14 07:11:43;;;;;;;21.75;18.92;;;21.20;65.20;;;;;;5328359;26;110815;-50
2024/04/14 07:14:08;;;;;;;22.13;18.88;;;21.10;65.60;;;;;;5330228;26;112858;-50
2024/04/14 07:16:34;;;;;;;23.13;19.42;;;21.30;65.00;;;;;;5330097;26;110601;-50
2024/04/14 07:18:59;;;;;;;22.35;18.70;;;21.10;65.20;;;;;;5357582;26;110750;-50
2024/04/14 07:21:25;;;;;;;19.67;17.75;;;21.20;65.50;;;;;;5355259;26;110834;-50
2024/04/14 07:23:51;;;;;;;23.40;17.50;;;21.50;64.80;;;;;;5359088;26;111158;-50
2024/04/14 07:26:16;;;;;;;21.55;17.73;;;21.60;64.10;;;;;;5361907;26;111045;-50
2024/04/14 07:28:42;;;;;;;20.30;18.38;;;21.80;64.20;;;;;;5356679;26;110564;-50
2024/04/14 07:31:08;;;;;;;18.98;16.83;;;21.50;64.90;;;;;;5344989;26;110603;-50
2024/04/14 07:33:35;;;;;;;19.20;17.25;;;21.90;64.60;;;;;;5336374;26;111473;-50
2024/04/14 07:36:01;;;;;;;19.38;16.00;;;22.10;63.20;;;;;;5318445;26;111001;-50
2024/04/14 07:38:26;;;;;;;19.40;16.80;;;22.20;62.40;;;;;;5341333;26;110681;-50
2024/04/14 07:40:52;;;;;;;18.60;16.55;;;22.40;62.90;;;;;;5339460;26;110971;-50
2024/04/14 07:43:18;;;;;;;17.20;15.40;;;22.40;62.10;;;;;;5351354;26;112023;-50
2024/04/14 07:45:43;;;;;;;17.88;16.08;;;22.70;61.00;;;;;;5351973;26;111962;-51
2024/04/14 07:48:09;;;;;;;19.92;16.73;;;22.70;61.20;;;;;;5348858;26;111716;-50
2024/04/14 07:50:42;;;;;;;17.08;15.23;;;22.80;60.90;;;;;;5363699;26;110817;-50
2024/04/14 07:53:08;;;;;;;21.52;17.67;;;23.10;60.60;;;;;;5364414;26;111147;-50
2024/04/14 07:55:33;;;;;;;19.33;17.35;;;23.00;59.80;;;;;;5355736;26;112773;-51
2024/04/14 07:57:59;;;;;;;19.80;16.95;;;22.70;60.60;;;;;;5349217;26;110446;-50
2024/04/14 08:00:25;;;;;;;19.00;17.17;;;22.80;61.10;;;;;;5331138;26;110505;-50
2024/04/14 08:02:50;;;;;;;22.30;16.70;;;22.90;60.30;;;;;;5331951;26;112754;-50
2024/04/14 08:05:16;;;;;;;21.48;16.67;;;23.00;60.50;;;;;;5329995;26;110496;-50
2024/04/14 08:07:41;;;;;;;19.88;17.77;;;23.10;60.20;;;;;;5330996;26;111088;-50
2024/04/14 08:31:13;;;;;;;17.83;16.02;;;24.00;57.00;;;;;;5400366;26;110837;-51
2024/04/14 08:33:39;;;;;;;16.92;15.32;;;24.00;56.70;;;;;;5361608;26;110731;-49
2024/04/14 08:36:05;;;;;;;18.92;15.73;;;24.30;56.90;;;;;;5356037;26;110684;-49
2024/04/14 08:38:31;;;;;;;21.25;18.30;;;24.30;56.30;;;;;;5357457;26;111173;-50
2024/04/14 08:40:58;;;;;;;15.13;13.63;;;24.20;56.20;;;;;;5346725;26;110892;-49
2024/04/14 08:43:24;;;;;;;17.00;14.95;;;24.40;56.90;;;;;;5347539;26;110362;-50
2024/04/14 08:45:51;;;;;;;14.98;12.38;;;24.90;55.20;;;;;;5348019;26;110590;-49
2024/04/14 08:48:20;;;;;;;15.82;13.13;;;25.10;54.90;;;;;;5355392;26;111912;-49
2024/04/14 08:50:51;;;;;;;20.00;15.43;;;25.40;54.80;;;;;;5359012;26;110874;-49
2024/04/14 08:53:18;;;;;;;18.95;15.70;;;25.50;53.70;;;;;;5388914;26;113490;-51
2024/04/14 08:55:44;;;;;;;16.13;14.65;;;25.30;54.10;;;;;;5392762;26;110953;-49
2024/04/14 08:58:13;;;;;;;18.25;14.00;;;25.40;54.10;;;;;;5359277;26;111227;-49
2024/04/14 09:00:42;;;;;;;19.58;14.02;;;25.50;54.00;;;;;;5347564;26;110338;-50
2024/04/14 09:03:07;;;;;;;17.08;13.30;;;25.60;53.30;;;;;;5386989;26;111644;-50
2024/04/14 09:05:37;;;;;;;17.25;14.00;;;25.70;53.40;;;;;;5406282;26;111096;-50
2024/04/14 09:08:03;;;;;;;18.27;14.52;;;26.00;52.80;;;;;;5384640;26;113132;-50
2024/04/14 09:10:28;;;;;;;18.42;15.27;;;26.20;52.20;;;;;;5398245;26;111497;-49
2024/04/14 09:12:54;;;;;;;15.65;14.13;;;26.40;52.10;;;;;;5403849;26;110860;-51
2024/04/14 09:15:21;;;;;;;20.42;15.43;;;26.20;52.90;;;;;;5385445;26;110771;-50
2024/04/14 09:17:47;;;;;;;19.30;17.38;;;26.30;52.10;;;;;;5383841;26;112614;-50
2024/04/14 09:20:12;;;;;;;18.77;16.75;;;26.40;51.80;;;;;;5374159;26;111427;-49
2024/04/14 09:22:39;;;;;;;15.85;13.68;;;26.10;52.30;;;;;;5386887;26;110785;-50
2024/04/14 09:25:06;;;;;;;18.45;16.73;;;26.70;52.10;;;;;;5395070;26;110783;-49
2024/04/14 09:27:32;;;;;;;17.70;16.02;;;26.90;50.60;;;;;;5349219;26;111121;-50
2024/04/14 09:30:19;;;;;;;16.23;14.40;;;26.90;50.20;;;;;;5405165;25;112587;-49
2024/04/14 09:32:46;;;;;;;19.58;17.67;;;26.60;50.80;;;;;;5418717;25;111677;-50
2024/04/14 09:35:12;;;;;;;17.70;16.13;;;26.40;51.20;;;;;;5392362;25;110894;-49
2024/04/14 09:48:06;;;;;;;18.77;15.57;;;27.40;48.70;;;;;;5365614;26;110586;-49
2024/04/14 09:50:34;;;;;;;18.42;14.65;;;27.40;49.30;;;;;;5330954;26;110434;-49
2024/04/14 09:53:01;;;;;;;15.40;14.00;;;27.90;49.10;;;;;;5305666;26;110801;-49
2024/04/14 09:55:27;;;;;;;17.13;13.52;;;28.10;47.60;;;;;;5334079;26;111398;-49
2024/04/14 09:57:53;;;;;;;15.07;11.95;;;28.20;46.80;;;;;;5333912;26;110581;-50
2024/04/14 10:00:18;;;;;;;12.68;11.25;;;27.60;46.60;;;;;;5336754;26;110419;-50
2024/04/14 10:03:03;;;;;;;15.18;13.75;;;27.70;46.80;;;;;;5323732;26;110468;-49
2024/04/14 10:05:30;;;;;;;16.80;15.25;;;28.00;47.00;;;;;;5316518;26;111826;-50
2024/04/14 10:07:56;;;;;;;15.77;14.32;;;28.20;46.30;;;;;;5334818;26;111529;-50
2024/04/14 10:10:25;;;;;;;15.48;13.90;;;28.40;46.90;;;;;;5331102;26;110735;-49
2024/04/14 10:12:53;;;;;;;32.58;28.95;;;28.30;47.60;;;;;;5331640;26;112378;-50
2024/04/14 10:15:23;;;;;;;17.75;15.27;;;28.60;46.00;;;;;;5340215;26;112508;-49
2024/04/14 10:18:14;;;;;;;17.30;15.48;;;28.90;44.80;;;;;;5332220;26;112013;-49
2024/04/14 10:20:44;;;;;;;19.73;15.15;;;29.30;43.60;;;;;;5342437;26;110672;-49
2024/04/14 10:23:16;;;;;;;18.95;13.45;;;29.50;43.60;;;;;;5337640;26;110652;-49
2024/04/14 10:25:49;;;;;;;17.15;15.18;;;29.90;44.00;;;;;;5327918;26;111112;-49
2024/04/14 10:28:16;;;;;;;17.65;13.55;;;31.40;40.30;;;;;;5321553;26;110473;-48
2024/04/14 10:30:43;;;;;;;17.27;14.55;;;34.80;35.50;;;;;;5316741;26;110592;-49
2024/04/14 10:33:18;;;;;;;13.57;12.18;;;34.30;37.10;;;;;;5328036;26;111442;-48
2024/04/14 10:35:43;;;;;;;16.35;13.45;;;34.00;36.00;;;;;;5318764;26;111467;-48
2024/04/14 10:38:21;;;;;;;16.98;13.00;;;32.70;38.90;;;;;;5326872;26;110850;-49
2024/04/14 10:40:47;;;;;;;20.25;18.15;;;31.90;39.70;;;;;;5319934;26;110763;-49
2024/04/14 10:43:13;;;;;;;16.08;14.52;;;31.70;41.00;;;;;;5323483;26;110527;-50
2024/04/14 10:45:39;;;;;;;15.25;13.77;;;31.70;39.80;;;;;;5320711;26;111097;-49
2024/04/14 10:54:36;;;;;;;16.00;14.55;;;31.80;40.00;;;;;;5366311;26;111666;-50
2024/04/14 10:57:01;;;;;;;38.58;29.10;;;32.10;39.40;;;;;;5346666;26;110609;-50
2024/04/14 10:59:27;;;;;;;22.27;16.23;;;31.80;39.70;;;;;;5345991;26;110612;-49
2024/04/14 11:01:53;;;;;;;17.65;15.68;;;32.20;39.70;;;;;;5346008;26;111610;-49
2024/04/14 11:04:19;;;;;;;24.88;19.00;;;31.80;40.60;;;;;;5343322;26;110480;-49
2024/04/14 11:06:45;;;;;;;23.63;17.42;;;32.80;39.70;;;;;;5346259;26;110552;-49
2024/04/14 11:09:12;;;;;;;18.88;16.83;;;31.50;41.50;;;;;;5346991;26;110513;-49
2024/04/14 11:11:39;;;;;;;17.05;15.43;;;32.10;40.00;;;;;;5345553;26;112712;-49
2024/04/14 11:14:05;;;;;;;14.93;13.48;;;32.10;39.70;;;;;;5345693;26;112119;-49
2024/04/14 11:16:32;;;;;;;15.07;13.65;;;33.40;38.30;;;;;;5346640;26;110718;-49
2024/04/14 11:18:57;;;;;;;14.35;12.65;;;33.70;38.10;;;;;;5346923;26;110603;-50
2024/04/14 11:21:26;;;;;;;15.88;14.23;;;33.90;37.30;;;;;;5345528;26;112415;-49
2024/04/14 11:23:52;;;;;;;15.60;13.95;;;33.40;38.20;;;;;;5345745;26;110562;-49
2024/04/14 11:26:18;;;;;;;18.17;11.85;;;33.00;38.40;;;;;;5346609;26;110733;-49
2024/04/14 11:28:45;;;;;;;14.15;12.10;;;32.80;38.90;;;;;;5346853;26;110625;-49
2024/04/14 11:31:11;;;;;;;14.07;12.13;;;32.90;38.10;;;;;;5345974;26;111076;-50
2024/04/14 11:33:40;;;;;;;18.25;16.00;;;33.80;37.10;;;;;;5345241;26;110709;-49
2024/04/14 11:36:09;;;;;;;17.70;12.15;;;32.00;39.10;;;;;;5346625;26;110681;-49
2024/04/14 11:38:36;;;;;;;13.98;12.20;;;32.00;39.60;;;;;;5346449;26;110524;-50
2024/04/14 11:41:03;;;;;;;14.55;12.90;;;32.90;38.80;;;;;;5345415;26;111646;-49
2024/04/14 11:43:30;;;;;;;13.70;12.15;;;32.30;38.90;;;;;;5345397;26;110890;-49
2024/04/14 11:45:55;;;;;;;13.00;11.77;;;32.90;38.60;;;;;;5346743;26;111150;-49
2024/04/14 11:48:24;;;;;;;16.90;13.85;;;33.40;37.90;;;;;;5346623;26;110640;-49
2024/04/14 11:50:53;;;;;;;14.40;12.55;;;33.40;37.20;;;;;;5345926;26;111170;-49
2024/04/14 11:53:18;;;;;;;13.90;12.50;;;33.60;37.50;;;;;;5363174;26;111339;-49
2024/04/14 11:55:44;;;;;;;13.25;11.85;;;33.90;36.90;;;;;;5381917;26;110622;-51
2024/04/14 11:58:12;;;;;;;14.77;12.52;;;33.10;38.30;;;;;;5382157;26;110572;-49
2024/04/14 12:00:39;;;;;;;12.80;10.88;;;33.10;38.10;;;;;;5381143;26;112696;-51
2024/04/14 12:03:05;;;;;;;13.15;12.00;;;33.80;37.30;;;;;;5380784;26;110491;-49
2024/04/14 12:05:30;;;;;;;16.05;13.23;;;34.00;36.20;;;;;;5369148;26;110915;-49
2024/04/14 12:07:56;;;;;;;14.55;12.05;;;32.60;38.40;;;;;;5366450;26;110506;-49
2024/04/14 12:10:22;;;;;;;13.23;11.75;;;33.30;37.70;;;;;;5365606;26;111716;-49
2024/04/14 12:12:48;;;;;;;15.95;13.52;;;33.80;37.30;;;;;;5365354;26;113621;-49
2024/04/14 12:15:13;;;;;;;13.85;12.00;;;33.40;36.70;;;;;;5366624;26;110429;-49
2024/04/14 12:17:39;;;;;;;16.67;12.88;;;33.50;36.80;;;;;;5366615;26;110488;-49
2024/04/14 12:20:05;;;;;;;13.60;12.07;;;33.00;37.30;;;;;;5365109;26;112385;-51
2024/04/14 12:22:31;;;;;;;13.43;12.00;;;33.10;37.00;;;;;;5365369;26;111213;-49
2024/04/14 12:24:56;;;;;;;15.77;12.85;;;33.50;36.10;;;;;;5366392;26;110528;-49
2024/04/14 12:27:22;;;;;;;14.80;12.25;;;33.50;36.30;;;;;;5366515;26;110635;-49
2024/04/14 12:29:48;;;;;;;14.93;13.07;;;33.90;36.50;;;;;;5365264;26;111102;-49
2024/04/14 12:32:13;;;;;;;15.55;12.68;;;32.90;37.30;;;;;;5365194;26;112036;-49
2024/04/14 12:34:39;;;;;;;13.35;11.27;;;32.90;38.50;;;;;;5366251;26;110558;-49
2024/04/14 12:37:05;;;;;;;14.18;10.80;;;32.80;39.50;;;;;;5366251;26;110464;-51
2024/04/14 12:39:30;;;;;;;13.70;12.27;;;33.50;37.90;;;;;;5365460;26;111034;-51
2024/04/14 12:41:56;;;;;;;15.73;12.40;;;33.40;37.20;;;;;;5365015;26;110784;-49
2024/04/14 12:44:22;;;;;;;14.20;12.80;;;34.00;36.40;;;;;;5364455;26;110726;-49
2024/04/14 12:46:48;;;;;;;12.60;11.30;;;33.10;37.10;;;;;;5366203;26;110880;-50
2024/04/14 12:49:25;;;;;;;12.45;11.20;;;32.90;37.90;;;;;;5365452;26;111004;-50
2024/04/14 12:51:52;;;;;;;14.75;10.77;;;33.40;37.40;;;;;;5365087;26;110744;-49
2024/04/14 12:54:17;;;;;;;14.77;11.27;;;32.70;37.40;;;;;;5366013;26;110430;-49